sensor_id;sensor_type;location;lat;lon;timestamp;temperature;humidity
28546;DHT22;15749;49.606;8.738;2023-03-01T00:01:58;9.50;62.90
28546;DHT22;15749;49.606;8.738;2023-03-01T00:04:28;9.50;63.70
28546;DHT22;15749;49.606;8.738;2023-03-01T00:06:57;9.50;62.80
28546;DHT22;15749;49.606;8.738;2023-03-01T00:09:28;9.50;62.90
28546;DHT22;15749;49.606;8.738;2023-03-01T00:11:58;9.40;62.90
28546;DHT22;15749;49.606;8.738;2023-03-01T00:14:27;9.40;62.90
28546;DHT22;15749;49.606;8.738;2023-03-01T00:16:56;9.40;62.90
28546;DHT22;15749;49.606;8.738;2023-03-01T00:19:25;9.40;62.90
28546;DHT22;15749;49.606;8.738;2023-03-01T00:21:54;9.40;62.90
28546;DHT22;15749;49.606;8.738;2023-03-01T00:24:23;9.40;62.80
28546;DHT22;15749;49.606;8.738;2023-03-01T00:26:53;9.40;63.40
28546;DHT22;15749;49.606;8.738;2023-03-01T00:29:26;9.40;63.30
28546;DHT22;15749;49.606;8.738;2023-03-01T00:31:57;9.40;63.40
28546;DHT22;15749;49.606;8.738;2023-03-01T00:34:26;9.40;63.50
28546;DHT22;15749;49.606;8.738;2023-03-01T00:36:55;9.40;63.30
28546;DHT22;15749;49.606;8.738;2023-03-01T00:39:32;9.40;63.30
28546;DHT22;15749;49.606;8.738;2023-03-01T00:42:04;9.40;63.30
28546;DHT22;15749;49.606;8.738;2023-03-01T00:44:35;9.30;63.10
28546;DHT22;15749;49.606;8.738;2023-03-01T00:47:04;9.30;62.80
28546;DHT22;15749;49.606;8.738;2023-03-01T00:49:34;9.30;62.70
28546;DHT22;15749;49.606;8.738;2023-03-01T00:52:04;9.30;63.40
28546;DHT22;15749;49.606;8.738;2023-03-01T00:54:33;9.30;62.70
28546;DHT22;15749;49.606;8.738;2023-03-01T00:57:02;9.30;62.80
28546;DHT22;15749;49.606;8.738;2023-03-01T00:59:31;9.30;62.90
28546;DHT22;15749;49.606;8.738;2023-03-01T01:02:02;9.30;62.90
28546;DHT22;15749;49.606;8.738;2023-03-01T01:04:49;9.20;62.90
28546;DHT22;15749;49.606;8.738;2023-03-01T01:07:18;9.20;63.30
28546;DHT22;15749;49.606;8.738;2023-03-01T01:09:48;9.20;63.30
28546;DHT22;15749;49.606;8.738;2023-03-01T01:12:17;9.20;63.40
28546;DHT22;15749;49.606;8.738;2023-03-01T01:14:46;9.20;63.60
28546;DHT22;15749;49.606;8.738;2023-03-01T01:17:17;9.20;64.10
28546;DHT22;15749;49.606;8.738;2023-03-01T01:19:46;9.20;63.30
28546;DHT22;15749;49.606;8.738;2023-03-01T01:22:15;9.20;63.30
28546;DHT22;15749;49.606;8.738;2023-03-01T01:24:44;9.10;63.20
28546;DHT22;15749;49.606;8.738;2023-03-01T01:27:13;9.10;63.40
28546;DHT22;15749;49.606;8.738;2023-03-01T01:29:42;9.10;63.40
28546;DHT22;15749;49.606;8.738;2023-03-01T01:32:11;9.10;64.10
28546;DHT22;15749;49.606;8.738;2023-03-01T01:34:42;9.00;63.10
28546;DHT22;15749;49.606;8.738;2023-03-01T01:37:11;9.00;63.10
28546;DHT22;15749;49.606;8.738;2023-03-01T01:39:42;9.00;63.30
28546;DHT22;15749;49.606;8.738;2023-03-01T01:42:15;9.00;63.50
28546;DHT22;15749;49.606;8.738;2023-03-01T01:44:46;9.00;63.80
28546;DHT22;15749;49.606;8.738;2023-03-01T01:47:17;9.00;63.60
28546;DHT22;15749;49.606;8.738;2023-03-01T01:49:51;9.00;63.90
28546;DHT22;15749;49.606;8.738;2023-03-01T01:52:25;9.00;63.90
28546;DHT22;15749;49.606;8.738;2023-03-01T01:54:59;8.90;64.80
28546;DHT22;15749;49.606;8.738;2023-03-01T01:57:34;8.90;63.90
28546;DHT22;15749;49.606;8.738;2023-03-01T02:00:07;8.90;63.60
28546;DHT22;15749;49.606;8.738;2023-03-01T02:02:41;8.90;63.60
28546;DHT22;15749;49.606;8.738;2023-03-01T02:05:20;8.90;63.90
28546;DHT22;15749;49.606;8.738;2023-03-01T02:07:57;8.90;64.40
28546;DHT22;15749;49.606;8.738;2023-03-01T02:10:28;8.90;64.20
28546;DHT22;15749;49.606;8.738;2023-03-01T02:12:57;8.90;64.30
28546;DHT22;15749;49.606;8.738;2023-03-01T02:15:32;8.90;64.50
28546;DHT22;15749;49.606;8.738;2023-03-01T02:18:02;8.90;65.70
28546;DHT22;15749;49.606;8.738;2023-03-01T02:20:40;8.90;64.90
28546;DHT22;15749;49.606;8.738;2023-03-01T02:23:16;8.90;65.00
28546;DHT22;15749;49.606;8.738;2023-03-01T02:25:53;8.90;64.50
28546;DHT22;15749;49.606;8.738;2023-03-01T02:28:30;8.90;64.90
28546;DHT22;15749;49.606;8.738;2023-03-01T02:30:59;8.90;65.60
28546;DHT22;15749;49.606;8.738;2023-03-01T02:33:51;8.90;64.50
28546;DHT22;15749;49.606;8.738;2023-03-01T02:36:23;8.90;64.20
28546;DHT22;15749;49.606;8.738;2023-03-01T02:38:57;8.90;64.30
28546;DHT22;15749;49.606;8.738;2023-03-01T02:41:32;8.90;64.60
28546;DHT22;15749;49.606;8.738;2023-03-01T02:44:06;8.90;65.30
28546;DHT22;15749;49.606;8.738;2023-03-01T02:46:42;8.80;64.30
28546;DHT22;15749;49.606;8.738;2023-03-01T02:49:20;8.90;64.30
28546;DHT22;15749;49.606;8.738;2023-03-01T02:52:21;8.90;64.50
28546;DHT22;15749;49.606;8.738;2023-03-01T02:55:14;8.80;64.40
28546;DHT22;15749;49.606;8.738;2023-03-01T02:57:46;8.80;64.20
28546;DHT22;15749;49.606;8.738;2023-03-01T03:00:22;8.80;64.30
28546;DHT22;15749;49.606;8.738;2023-03-01T03:02:54;8.80;64.30
28546;DHT22;15749;49.606;8.738;2023-03-01T03:05:28;8.80;64.20
28546;DHT22;15749;49.606;8.738;2023-03-01T03:08:00;8.80;64.40
28546;DHT22;15749;49.606;8.738;2023-03-01T03:10:37;8.80;64.40
28546;DHT22;15749;49.606;8.738;2023-03-01T03:13:10;8.80;64.40
28546;DHT22;15749;49.606;8.738;2023-03-01T03:15:43;8.80;64.50
28546;DHT22;15749;49.606;8.738;2023-03-01T03:18:15;8.80;64.50
28546;DHT22;15749;49.606;8.738;2023-03-01T03:20:45;8.80;64.60
28546;DHT22;15749;49.606;8.738;2023-03-01T03:23:15;8.80;64.50
28546;DHT22;15749;49.606;8.738;2023-03-01T03:25:44;8.90;64.50
28546;DHT22;15749;49.606;8.738;2023-03-01T03:28:16;8.90;64.30
28546;DHT22;15749;49.606;8.738;2023-03-01T03:30:47;8.80;64.30
28546;DHT22;15749;49.606;8.738;2023-03-01T03:33:17;8.90;64.30
28546;DHT22;15749;49.606;8.738;2023-03-01T03:35:48;8.90;64.30
28546;DHT22;15749;49.606;8.738;2023-03-01T03:38:19;8.90;64.20
28546;DHT22;15749;49.606;8.738;2023-03-01T03:40:51;8.80;64.00
28546;DHT22;15749;49.606;8.738;2023-03-01T03:43:23;8.80;63.90
28546;DHT22;15749;49.606;8.738;2023-03-01T03:45:54;8.80;63.70
28546;DHT22;15749;49.606;8.738;2023-03-01T03:48:25;8.80;64.00
28546;DHT22;15749;49.606;8.738;2023-03-01T03:50:55;8.80;64.00
28546;DHT22;15749;49.606;8.738;2023-03-01T03:53:27;8.80;64.10
28546;DHT22;15749;49.606;8.738;2023-03-01T03:55:58;8.80;64.50
28546;DHT22;15749;49.606;8.738;2023-03-01T03:58:27;8.80;64.40
28546;DHT22;15749;49.606;8.738;2023-03-01T04:00:58;8.80;64.30
28546;DHT22;15749;49.606;8.738;2023-03-01T04:03:30;8.80;64.20
28546;DHT22;15749;49.606;8.738;2023-03-01T04:06:01;8.80;64.30
28546;DHT22;15749;49.606;8.738;2023-03-01T04:08:32;8.80;64.10
28546;DHT22;15749;49.606;8.738;2023-03-01T04:11:02;8.80;64.10
28546;DHT22;15749;49.606;8.738;2023-03-01T04:13:56;8.80;64.00
28546;DHT22;15749;49.606;8.738;2023-03-01T04:16:29;8.80;64.20
28546;DHT22;15749;49.606;8.738;2023-03-01T04:18:59;8.80;64.30
28546;DHT22;15749;49.606;8.738;2023-03-01T04:21:29;8.70;64.20
28546;DHT22;15749;49.606;8.738;2023-03-01T04:23:58;8.70;64.30
28546;DHT22;15749;49.606;8.738;2023-03-01T04:26:31;8.70;64.50
28546;DHT22;15749;49.606;8.738;2023-03-01T04:29:00;8.70;64.50
28546;DHT22;15749;49.606;8.738;2023-03-01T04:31:31;8.70;64.50
28546;DHT22;15749;49.606;8.738;2023-03-01T04:34:01;8.70;64.70
28546;DHT22;15749;49.606;8.738;2023-03-01T04:36:31;8.70;64.60
28546;DHT22;15749;49.606;8.738;2023-03-01T04:39:03;8.70;64.50
28546;DHT22;15749;49.606;8.738;2023-03-01T04:41:40;8.70;64.40
28546;DHT22;15749;49.606;8.738;2023-03-01T04:44:11;8.70;64.20
28546;DHT22;15749;49.606;8.738;2023-03-01T04:46:42;8.70;64.10
28546;DHT22;15749;49.606;8.738;2023-03-01T04:49:11;8.60;63.80
28546;DHT22;15749;49.606;8.738;2023-03-01T04:51:41;8.60;63.80
28546;DHT22;15749;49.606;8.738;2023-03-01T04:54:10;8.60;64.00
28546;DHT22;15749;49.606;8.738;2023-03-01T04:56:40;8.60;64.10
28546;DHT22;15749;49.606;8.738;2023-03-01T04:59:09;8.60;64.90
28546;DHT22;15749;49.606;8.738;2023-03-01T05:01:41;8.60;64.40
28546;DHT22;15749;49.606;8.738;2023-03-01T05:04:11;8.60;64.20
28546;DHT22;15749;49.606;8.738;2023-03-01T05:06:41;8.60;64.10
28546;DHT22;15749;49.606;8.738;2023-03-01T05:09:10;8.50;64.10
28546;DHT22;15749;49.606;8.738;2023-03-01T05:11:40;8.60;64.00
28546;DHT22;15749;49.606;8.738;2023-03-01T05:14:10;8.50;64.10
28546;DHT22;15749;49.606;8.738;2023-03-01T05:16:39;8.50;64.10
28546;DHT22;15749;49.606;8.738;2023-03-01T05:19:10;8.60;64.10
28546;DHT22;15749;49.606;8.738;2023-03-01T05:21:43;8.60;64.20
28546;DHT22;15749;49.606;8.738;2023-03-01T05:24:31;8.50;64.20
28546;DHT22;15749;49.606;8.738;2023-03-01T05:27:02;8.60;64.30
28546;DHT22;15749;49.606;8.738;2023-03-01T05:29:32;8.50;64.20
28546;DHT22;15749;49.606;8.738;2023-03-01T05:32:03;8.50;64.20
28546;DHT22;15749;49.606;8.738;2023-03-01T05:34:35;8.50;64.10
28546;DHT22;15749;49.606;8.738;2023-03-01T05:37:06;8.50;64.10
28546;DHT22;15749;49.606;8.738;2023-03-01T05:39:36;8.50;63.80
28546;DHT22;15749;49.606;8.738;2023-03-01T05:42:05;8.50;63.90
28546;DHT22;15749;49.606;8.738;2023-03-01T05:44:36;8.50;64.00
28546;DHT22;15749;49.606;8.738;2023-03-01T05:47:06;8.50;63.90
28546;DHT22;15749;49.606;8.738;2023-03-01T05:49:36;8.50;64.00
28546;DHT22;15749;49.606;8.738;2023-03-01T05:52:07;8.50;64.20
28546;DHT22;15749;49.606;8.738;2023-03-01T05:54:37;8.50;64.30
28546;DHT22;15749;49.606;8.738;2023-03-01T05:57:06;8.50;64.30
28546;DHT22;15749;49.606;8.738;2023-03-01T05:59:36;8.50;64.20
28546;DHT22;15749;49.606;8.738;2023-03-01T06:02:05;8.50;64.20
28546;DHT22;15749;49.606;8.738;2023-03-01T06:04:36;8.50;64.20
28546;DHT22;15749;49.606;8.738;2023-03-01T06:07:05;8.50;64.20
28546;DHT22;15749;49.606;8.738;2023-03-01T06:09:35;8.50;64.10
28546;DHT22;15749;49.606;8.738;2023-03-01T06:12:05;8.50;64.20
28546;DHT22;15749;49.606;8.738;2023-03-01T06:14:34;8.50;64.40
28546;DHT22;15749;49.606;8.738;2023-03-01T06:17:04;8.50;64.50
28546;DHT22;15749;49.606;8.738;2023-03-01T06:19:33;8.50;64.40
28546;DHT22;15749;49.606;8.738;2023-03-01T06:22:04;8.40;64.10
28546;DHT22;15749;49.606;8.738;2023-03-01T06:24:34;8.50;64.40
28546;DHT22;15749;49.606;8.738;2023-03-01T06:27:04;8.50;64.30
28546;DHT22;15749;49.606;8.738;2023-03-01T06:29:33;8.50;64.60
28546;DHT22;15749;49.606;8.738;2023-03-01T06:32:03;8.50;64.60
28546;DHT22;15749;49.606;8.738;2023-03-01T06:34:33;8.50;64.50
28546;DHT22;15749;49.606;8.738;2023-03-01T06:37:04;8.50;64.70
28546;DHT22;15749;49.606;8.738;2023-03-01T06:39:34;8.40;64.60
28546;DHT22;15749;49.606;8.738;2023-03-01T06:42:03;8.50;64.60
28546;DHT22;15749;49.606;8.738;2023-03-01T06:44:33;8.50;64.70
28546;DHT22;15749;49.606;8.738;2023-03-01T06:47:03;8.40;64.60
28546;DHT22;15749;49.606;8.738;2023-03-01T06:49:32;8.50;64.70
28546;DHT22;15749;49.606;8.738;2023-03-01T06:52:03;8.50;64.70
28546;DHT22;15749;49.606;8.738;2023-03-01T06:54:33;8.50;65.00
28546;DHT22;15749;49.606;8.738;2023-03-01T06:57:03;8.50;65.00
28546;DHT22;15749;49.606;8.738;2023-03-01T06:59:32;8.60;65.10
28546;DHT22;15749;49.606;8.738;2023-03-01T07:02:02;8.50;65.20
28546;DHT22;15749;49.606;8.738;2023-03-01T07:04:31;8.60;65.40
28546;DHT22;15749;49.606;8.738;2023-03-01T07:07:01;8.60;65.40
28546;DHT22;15749;49.606;8.738;2023-03-01T07:09:32;8.60;65.20
28546;DHT22;15749;49.606;8.738;2023-03-01T07:12:01;8.60;65.20
28546;DHT22;15749;49.606;8.738;2023-03-01T07:14:31;8.70;65.30
28546;DHT22;15749;49.606;8.738;2023-03-01T07:17:01;8.70;65.30
28546;DHT22;15749;49.606;8.738;2023-03-01T07:19:30;8.70;65.30
28546;DHT22;15749;49.606;8.738;2023-03-01T07:22:00;8.80;65.40
28546;DHT22;15749;49.606;8.738;2023-03-01T07:24:29;8.80;65.40
28546;DHT22;15749;49.606;8.738;2023-03-01T07:27:00;8.80;65.70
28546;DHT22;15749;49.606;8.738;2023-03-01T07:29:29;8.90;65.80
28546;DHT22;15749;49.606;8.738;2023-03-01T07:31:59;8.90;65.70
28546;DHT22;15749;49.606;8.738;2023-03-01T07:34:29;8.90;65.70
28546;DHT22;15749;49.606;8.738;2023-03-01T07:36:58;9.00;65.90
28546;DHT22;15749;49.606;8.738;2023-03-01T07:39:28;9.00;65.70
28546;DHT22;15749;49.606;8.738;2023-03-01T07:41:57;9.10;65.80
28546;DHT22;15749;49.606;8.738;2023-03-01T07:44:28;9.10;65.60
28546;DHT22;15749;49.606;8.738;2023-03-01T07:46:57;9.20;65.60
28546;DHT22;15749;49.606;8.738;2023-03-01T07:49:27;9.20;65.80
28546;DHT22;15749;49.606;8.738;2023-03-01T07:51:56;9.30;66.10
28546;DHT22;15749;49.606;8.738;2023-03-01T07:54:26;9.30;66.00
28546;DHT22;15749;49.606;8.738;2023-03-01T07:56:56;9.40;66.20
28546;DHT22;15749;49.606;8.738;2023-03-01T07:59:27;9.40;66.50
28546;DHT22;15749;49.606;8.738;2023-03-01T08:01:57;9.50;66.50
28546;DHT22;15749;49.606;8.738;2023-03-01T08:04:27;9.60;66.30
28546;DHT22;15749;49.606;8.738;2023-03-01T08:06:56;9.70;66.40
28546;DHT22;15749;49.606;8.738;2023-03-01T08:09:26;9.70;66.10
28546;DHT22;15749;49.606;8.738;2023-03-01T08:11:56;9.80;66.40
28546;DHT22;15749;49.606;8.738;2023-03-01T08:14:29;9.90;66.20
28546;DHT22;15749;49.606;8.738;2023-03-01T08:16:58;9.90;65.90
28546;DHT22;15749;49.606;8.738;2023-03-01T08:19:28;10.00;65.90
28546;DHT22;15749;49.606;8.738;2023-03-01T08:21:58;10.10;66.20
28546;DHT22;15749;49.606;8.738;2023-03-01T08:24:28;10.20;66.20
28546;DHT22;15749;49.606;8.738;2023-03-01T08:26:57;10.20;66.30
28546;DHT22;15749;49.606;8.738;2023-03-01T08:29:30;10.30;66.00
28546;DHT22;15749;49.606;8.738;2023-03-01T08:32:00;10.40;65.80
28546;DHT22;15749;49.606;8.738;2023-03-01T08:34:30;10.50;65.80
28546;DHT22;15749;49.606;8.738;2023-03-01T08:36:59;10.50;65.60
28546;DHT22;15749;49.606;8.738;2023-03-01T08:39:29;10.60;65.50
28546;DHT22;15749;49.606;8.738;2023-03-01T08:42:01;10.70;65.90
28546;DHT22;15749;49.606;8.738;2023-03-01T08:44:32;10.80;65.80
28546;DHT22;15749;49.606;8.738;2023-03-01T08:47:02;10.90;65.90
28546;DHT22;15749;49.606;8.738;2023-03-01T08:49:33;11.00;66.30
28546;DHT22;15749;49.606;8.738;2023-03-01T08:52:17;11.10;66.40
28546;DHT22;15749;49.606;8.738;2023-03-01T08:54:47;11.20;66.10
28546;DHT22;15749;49.606;8.738;2023-03-01T08:57:17;11.30;66.00
28546;DHT22;15749;49.606;8.738;2023-03-01T08:59:48;11.40;66.00
28546;DHT22;15749;49.606;8.738;2023-03-01T09:02:18;11.40;65.60
28546;DHT22;15749;49.606;8.738;2023-03-01T09:04:48;11.50;65.40
28546;DHT22;15749;49.606;8.738;2023-03-01T09:07:17;11.60;65.80
28546;DHT22;15749;49.606;8.738;2023-03-01T09:09:47;11.70;65.90
28546;DHT22;15749;49.606;8.738;2023-03-01T09:12:16;11.80;65.40
28546;DHT22;15749;49.606;8.738;2023-03-01T09:14:47;11.90;65.30
28546;DHT22;15749;49.606;8.738;2023-03-01T09:17:17;12.00;65.30
28546;DHT22;15749;49.606;8.738;2023-03-01T09:19:49;12.10;65.50
28546;DHT22;15749;49.606;8.738;2023-03-01T09:22:18;12.20;65.20
28546;DHT22;15749;49.606;8.738;2023-03-01T09:24:48;12.30;64.70
28546;DHT22;15749;49.606;8.738;2023-03-01T09:27:17;12.30;64.20
28546;DHT22;15749;49.606;8.738;2023-03-01T09:29:48;12.40;63.80
28546;DHT22;15749;49.606;8.738;2023-03-01T09:32:17;12.50;64.10
28546;DHT22;15749;49.606;8.738;2023-03-01T09:34:47;12.60;64.70
28546;DHT22;15749;49.606;8.738;2023-03-01T09:37:36;12.60;64.50
28546;DHT22;15749;49.606;8.738;2023-03-01T09:40:12;12.70;65.00
28546;DHT22;15749;49.606;8.738;2023-03-01T09:42:53;12.80;64.60
28546;DHT22;15749;49.606;8.738;2023-03-01T09:45:33;12.90;63.90
28546;DHT22;15749;49.606;8.738;2023-03-01T09:48:09;13.00;63.70
28546;DHT22;15749;49.606;8.738;2023-03-01T09:50:43;13.10;64.10
28546;DHT22;15749;49.606;8.738;2023-03-01T09:53:16;13.20;64.10
28546;DHT22;15749;49.606;8.738;2023-03-01T09:55:51;13.30;64.90
28546;DHT22;15749;49.606;8.738;2023-03-01T09:58:34;13.40;64.20
28546;DHT22;15749;49.606;8.738;2023-03-01T10:01:31;13.50;63.80
28546;DHT22;15749;49.606;8.738;2023-03-01T10:04:18;13.60;62.30
28546;DHT22;15749;49.606;8.738;2023-03-01T10:07:16;13.80;62.80
28546;DHT22;15749;49.606;8.738;2023-03-01T10:09:50;13.80;62.50
28546;DHT22;15749;49.606;8.738;2023-03-01T10:12:22;13.90;62.90
28546;DHT22;15749;49.606;8.738;2023-03-01T10:14:57;14.00;62.30
28546;DHT22;15749;49.606;8.738;2023-03-01T10:17:35;14.10;62.50
28546;DHT22;15749;49.606;8.738;2023-03-01T10:20:16;14.20;62.70
28546;DHT22;15749;49.606;8.738;2023-03-01T10:22:47;14.30;61.60
28546;DHT22;15749;49.606;8.738;2023-03-01T10:25:36;14.30;61.50
28546;DHT22;15749;49.606;8.738;2023-03-01T10:28:17;14.40;62.10
28546;DHT22;15749;49.606;8.738;2023-03-01T10:30:48;14.50;61.80
28546;DHT22;15749;49.606;8.738;2023-03-01T10:33:23;14.60;62.90
28546;DHT22;15749;49.606;8.738;2023-03-01T10:35:53;14.70;62.50
28546;DHT22;15749;49.606;8.738;2023-03-01T10:38:22;14.80;62.70
28546;DHT22;15749;49.606;8.738;2023-03-01T10:40:54;14.90;62.10
28546;DHT22;15749;49.606;8.738;2023-03-01T10:43:30;14.90;61.10
28546;DHT22;15749;49.606;8.738;2023-03-01T10:46:28;15.00;60.90
28546;DHT22;15749;49.606;8.738;2023-03-01T10:49:24;15.10;59.60
28546;DHT22;15749;49.606;8.738;2023-03-01T10:52:11;15.20;61.30
28546;DHT22;15749;49.606;8.738;2023-03-01T10:54:52;15.30;60.90
28546;DHT22;15749;49.606;8.738;2023-03-01T10:57:35;15.40;60.60
28546;DHT22;15749;49.606;8.738;2023-03-01T11:00:25;15.50;61.60
28546;DHT22;15749;49.606;8.738;2023-03-01T11:03:09;15.70;60.00
28546;DHT22;15749;49.606;8.738;2023-03-01T11:05:54;15.80;60.70
28546;DHT22;15749;49.606;8.738;2023-03-01T11:08:40;15.90;59.30
28546;DHT22;15749;49.606;8.738;2023-03-01T11:11:23;16.00;59.90
28546;DHT22;15749;49.606;8.738;2023-03-01T11:14:00;16.10;61.00
28546;DHT22;15749;49.606;8.738;2023-03-01T11:16:59;16.20;60.60
28546;DHT22;15749;49.606;8.738;2023-03-01T11:19:30;16.30;60.10
28546;DHT22;15749;49.606;8.738;2023-03-01T11:22:08;16.40;60.50
28546;DHT22;15749;49.606;8.738;2023-03-01T11:24:42;16.40;61.50
28546;DHT22;15749;49.606;8.738;2023-03-01T11:27:18;16.50;60.70
28546;DHT22;15749;49.606;8.738;2023-03-01T11:29:52;16.60;59.70
28546;DHT22;15749;49.606;8.738;2023-03-01T11:32:26;16.70;59.50
28546;DHT22;15749;49.606;8.738;2023-03-01T11:35:02;16.80;59.50
28546;DHT22;15749;49.606;8.738;2023-03-01T11:37:38;16.90;58.40
28546;DHT22;15749;49.606;8.738;2023-03-01T11:40:16;16.90;58.20
28546;DHT22;15749;49.606;8.738;2023-03-01T11:43:00;17.00;56.70
28546;DHT22;15749;49.606;8.738;2023-03-01T11:45:45;17.00;56.00
28546;DHT22;15749;49.606;8.738;2023-03-01T11:48:41;17.10;58.30
28546;DHT22;15749;49.606;8.738;2023-03-01T11:51:24;17.10;57.40
28546;DHT22;15749;49.606;8.738;2023-03-01T11:54:06;17.20;57.40
28546;DHT22;15749;49.606;8.738;2023-03-01T11:56:46;17.20;56.80
28546;DHT22;15749;49.606;8.738;2023-03-01T11:59:43;17.30;57.00
28546;DHT22;15749;49.606;8.738;2023-03-01T12:05:54;17.40;56.20
28546;DHT22;15749;49.606;8.738;2023-03-01T12:08:41;17.50;57.20
28546;DHT22;15749;49.606;8.738;2023-03-01T12:11:22;17.50;56.70
28546;DHT22;15749;49.606;8.738;2023-03-01T12:17:22;17.70;55.80
28546;DHT22;15749;49.606;8.738;2023-03-01T12:20:18;17.80;55.40
28546;DHT22;15749;49.606;8.738;2023-03-01T12:23:02;17.80;55.90
28546;DHT22;15749;49.606;8.738;2023-03-01T12:25:49;17.90;55.20
28546;DHT22;15749;49.606;8.738;2023-03-01T12:28:41;17.90;55.80
28546;DHT22;15749;49.606;8.738;2023-03-01T12:31:52;18.00;54.60
28546;DHT22;15749;49.606;8.738;2023-03-01T12:34:51;18.00;54.80
28546;DHT22;15749;49.606;8.738;2023-03-01T12:37:37;18.00;53.90
28546;DHT22;15749;49.606;8.738;2023-03-01T12:40:24;18.00;55.10
28546;DHT22;15749;49.606;8.738;2023-03-01T12:43:11;18.00;53.90
28546;DHT22;15749;49.606;8.738;2023-03-01T12:45:54;17.90;53.70
28546;DHT22;15749;49.606;8.738;2023-03-01T12:48:37;17.80;53.10
28546;DHT22;15749;49.606;8.738;2023-03-01T12:51:13;17.80;54.40
28546;DHT22;15749;49.606;8.738;2023-03-01T12:53:48;17.70;53.90
28546;DHT22;15749;49.606;8.738;2023-03-01T12:56:20;17.60;53.90
28546;DHT22;15749;49.606;8.738;2023-03-01T12:58:57;17.50;53.20
28546;DHT22;15749;49.606;8.738;2023-03-01T13:01:42;17.40;53.00
28546;DHT22;15749;49.606;8.738;2023-03-01T13:04:29;17.30;52.70
28546;DHT22;15749;49.606;8.738;2023-03-01T13:07:23;17.20;52.80
28546;DHT22;15749;49.606;8.738;2023-03-01T13:10:06;17.10;53.20
28546;DHT22;15749;49.606;8.738;2023-03-01T13:12:51;17.00;53.10
28546;DHT22;15749;49.606;8.738;2023-03-01T13:15:30;16.90;52.80
28546;DHT22;15749;49.606;8.738;2023-03-01T13:18:04;16.70;52.90
28546;DHT22;15749;49.606;8.738;2023-03-01T13:20:58;16.60;53.10
28546;DHT22;15749;49.606;8.738;2023-03-01T13:23:36;16.50;53.30
28546;DHT22;15749;49.606;8.738;2023-03-01T13:26:09;16.40;53.40
28546;DHT22;15749;49.606;8.738;2023-03-01T13:28:50;16.30;53.10
28546;DHT22;15749;49.606;8.738;2023-03-01T13:34:47;16.10;53.00
28546;DHT22;15749;49.606;8.738;2023-03-01T13:37:26;16.00;53.50
28546;DHT22;15749;49.606;8.738;2023-03-01T13:39:59;15.90;53.40
28546;DHT22;15749;49.606;8.738;2023-03-01T13:42:41;15.80;53.20
28546;DHT22;15749;49.606;8.738;2023-03-01T13:45:36;15.70;53.10
28546;DHT22;15749;49.606;8.738;2023-03-01T13:48:18;15.60;53.70
28546;DHT22;15749;49.606;8.738;2023-03-01T13:50:56;15.50;54.20
28546;DHT22;15749;49.606;8.738;2023-03-01T13:53:33;15.50;53.80
28546;DHT22;15749;49.606;8.738;2023-03-01T13:56:09;15.40;54.00
28546;DHT22;15749;49.606;8.738;2023-03-01T13:58:51;15.40;54.40
28546;DHT22;15749;49.606;8.738;2023-03-01T14:01:24;15.30;53.80
28546;DHT22;15749;49.606;8.738;2023-03-01T14:03:59;15.20;54.10
28546;DHT22;15749;49.606;8.738;2023-03-01T14:06:33;15.10;55.10
28546;DHT22;15749;49.606;8.738;2023-03-01T14:09:09;15.10;54.90
28546;DHT22;15749;49.606;8.738;2023-03-01T14:11:59;15.00;54.60
28546;DHT22;15749;49.606;8.738;2023-03-01T14:14:44;15.00;54.10
28546;DHT22;15749;49.606;8.738;2023-03-01T14:17:45;14.90;54.10
28546;DHT22;15749;49.606;8.738;2023-03-01T14:20:23;14.90;54.90
28546;DHT22;15749;49.606;8.738;2023-03-01T14:22:56;14.80;54.90
28546;DHT22;15749;49.606;8.738;2023-03-01T14:25:28;14.80;55.10
28546;DHT22;15749;49.606;8.738;2023-03-01T14:28:04;14.70;55.30
28546;DHT22;15749;49.606;8.738;2023-03-01T14:30:44;14.70;54.60
28546;DHT22;15749;49.606;8.738;2023-03-01T14:33:23;14.60;54.60
28546;DHT22;15749;49.606;8.738;2023-03-01T14:35:59;14.60;54.40
28546;DHT22;15749;49.606;8.738;2023-03-01T14:38:32;14.50;54.50
28546;DHT22;15749;49.606;8.738;2023-03-01T14:41:06;14.50;54.70
28546;DHT22;15749;49.606;8.738;2023-03-01T14:43:37;14.40;54.90
28546;DHT22;15749;49.606;8.738;2023-03-01T14:46:18;14.50;54.80
28546;DHT22;15749;49.606;8.738;2023-03-01T14:48:50;14.40;55.00
28546;DHT22;15749;49.606;8.738;2023-03-01T14:51:19;14.40;54.90
28546;DHT22;15749;49.606;8.738;2023-03-01T14:53:53;14.40;55.10
28546;DHT22;15749;49.606;8.738;2023-03-01T14:56:22;14.30;55.20
28546;DHT22;15749;49.606;8.738;2023-03-01T14:58:52;14.30;55.90
28546;DHT22;15749;49.606;8.738;2023-03-01T15:01:22;14.30;55.30
28546;DHT22;15749;49.606;8.738;2023-03-01T15:03:51;14.20;55.30
28546;DHT22;15749;49.606;8.738;2023-03-01T15:06:22;14.20;55.50
28546;DHT22;15749;49.606;8.738;2023-03-01T15:08:54;14.20;55.90
28546;DHT22;15749;49.606;8.738;2023-03-01T15:11:28;14.20;55.70
28546;DHT22;15749;49.606;8.738;2023-03-01T15:13:59;14.20;55.50
28546;DHT22;15749;49.606;8.738;2023-03-01T15:16:29;14.20;55.70
28546;DHT22;15749;49.606;8.738;2023-03-01T15:19:01;14.10;55.60
28546;DHT22;15749;49.606;8.738;2023-03-01T15:21:32;14.20;55.90
28546;DHT22;15749;49.606;8.738;2023-03-01T15:24:16;14.10;55.80
28546;DHT22;15749;49.606;8.738;2023-03-01T15:26:51;14.10;55.90
28546;DHT22;15749;49.606;8.738;2023-03-01T15:29:24;14.10;55.90
28546;DHT22;15749;49.606;8.738;2023-03-01T15:31:59;14.10;56.10
28546;DHT22;15749;49.606;8.738;2023-03-01T15:34:32;14.00;55.90
28546;DHT22;15749;49.606;8.738;2023-03-01T15:37:03;14.00;56.10
28546;DHT22;15749;49.606;8.738;2023-03-01T15:39:40;14.00;56.10
28546;DHT22;15749;49.606;8.738;2023-03-01T15:42:12;14.00;56.00
28546;DHT22;15749;49.606;8.738;2023-03-01T15:44:44;14.00;56.10
28546;DHT22;15749;49.606;8.738;2023-03-01T15:47:25;14.00;55.90
28546;DHT22;15749;49.606;8.738;2023-03-01T15:50:00;14.00;55.30
28546;DHT22;15749;49.606;8.738;2023-03-01T15:52:40;13.90;55.90
28546;DHT22;15749;49.606;8.738;2023-03-01T15:55:17;14.00;55.50
28546;DHT22;15749;49.606;8.738;2023-03-01T15:57:48;13.90;55.90
28546;DHT22;15749;49.606;8.738;2023-03-01T16:00:18;13.90;55.90
28546;DHT22;15749;49.606;8.738;2023-03-01T16:02:48;13.90;55.90
28546;DHT22;15749;49.606;8.738;2023-03-01T16:07:54;13.90;56.10
28546;DHT22;15749;49.606;8.738;2023-03-01T16:10:24;13.80;56.40
28546;DHT22;15749;49.606;8.738;2023-03-01T16:12:53;13.80;56.70
28546;DHT22;15749;49.606;8.738;2023-03-01T16:15:24;13.90;56.90
28546;DHT22;15749;49.606;8.738;2023-03-01T16:17:57;13.80;56.70
28546;DHT22;15749;49.606;8.738;2023-03-01T16:20:27;13.80;56.90
28546;DHT22;15749;49.606;8.738;2023-03-01T16:23:01;13.80;56.60
28546;DHT22;15749;49.606;8.738;2023-03-01T16:25:33;13.80;56.70
28546;DHT22;15749;49.606;8.738;2023-03-01T16:28:03;13.80;56.60
28546;DHT22;15749;49.606;8.738;2023-03-01T16:30:37;13.80;56.60
28546;DHT22;15749;49.606;8.738;2023-03-01T16:33:07;13.80;56.60
28546;DHT22;15749;49.606;8.738;2023-03-01T16:35:56;13.80;56.60